Time;durP1;ratioP1;P1;durP2;ratioP2;P2;SDS_P1;SDS_P2;PMS_P1;PMS_P2;Temp;Humidity;BMP_temperature;BMP_pressure;BME280_temperature;BME280_humidity;BME280_pressure;Samples;Min_cycle;Max_cycle;Signal;HPM_P1;HPM_P2
2022/04/15 00:02:22;;;;;;;7.75;5.28;;;4.00;1.00;;;;;;5016480;28;20399;-77
2022/04/15 00:04:47;;;;;;;12.70;5.28;;;4.00;1.00;;;;;;5015819;28;20032;-77
2022/04/15 00:07:13;;;;;;;8.43;4.63;;;4.00;1.00;;;;;;5015832;28;20398;-77
2022/04/15 00:09:38;;;;;;;10.38;5.60;;;4.00;1.00;;;;;;5015438;28;20064;-77
2022/04/15 00:12:06;;;;;;;7.97;4.72;;;3.90;1.00;;;;;;5015447;28;20033;-77
2022/04/15 00:14:34;;;;;;;10.63;5.40;;;3.90;1.00;;;;;;5015246;28;20056;-77
2022/04/15 00:16:59;;;;;;;8.50;5.10;;;3.80;1.00;;;;;;5022049;28;20389;-77
2022/04/15 00:19:25;;;;;;;10.02;5.40;;;3.80;1.00;;;;;;5035088;28;20021;-77
2022/04/15 00:21:50;;;;;;;9.25;5.28;;;3.80;1.00;;;;;;5035573;28;20138;-77
2022/04/15 00:24:16;;;;;;;9.55;5.07;;;3.80;1.00;;;;;;5035072;28;20078;-77
2022/04/15 00:26:42;;;;;;;10.18;5.05;;;3.80;1.00;;;;;;5033777;28;20022;-76
2022/04/15 00:29:07;;;;;;;7.15;5.15;;;3.80;1.00;;;;;;5034908;28;20017;-77
2022/04/15 00:31:35;;;;;;;12.27;5.25;;;3.80;1.00;;;;;;5034882;28;20036;-76
2022/04/15 00:34:02;;;;;;;9.98;5.28;;;3.70;1.00;;;;;;5035211;28;20038;-77
2022/04/15 00:36:28;;;;;;;10.75;4.82;;;3.70;1.00;;;;;;5034755;28;20100;-77
2022/04/15 00:38:53;;;;;;;8.02;4.57;;;3.80;18.20;;;;;;5034911;28;20064;-77
2022/04/15 00:41:19;;;;;;;11.40;5.50;;;3.80;43.20;;;;;;5034688;28;20392;-77
2022/04/15 00:43:44;;;;;;;11.15;5.03;;;3.80;60.70;;;;;;5034782;28;20021;-77
2022/04/15 00:46:11;;;;;;;9.93;4.93;;;3.80;94.80;;;;;;5034675;28;20029;-76
2022/04/15 00:48:37;;;;;;;10.93;5.10;;;3.80;99.90;;;;;;5034632;28;20067;-77
2022/04/15 00:51:06;;;;;;;10.18;4.78;;;3.80;99.90;;;;;;5034743;28;20033;-76
2022/04/15 00:53:32;;;;;;;7.43;5.18;;;3.80;99.90;;;;;;5034433;28;20060;-77
2022/04/15 00:56:03;;;;;;;9.40;5.35;;;3.80;99.90;;;;;;5034591;28;20025;-77
2022/04/15 00:58:31;;;;;;;8.73;5.05;;;3.80;99.90;;;;;;5033362;28;20014;-77
2022/04/15 01:00:58;;;;;;;8.57;5.18;;;3.70;99.90;;;;;;5014619;28;20478;-76
2022/04/15 01:03:24;;;;;;;7.85;5.35;;;3.70;99.90;;;;;;5014845;28;20379;-77
2022/04/15 01:05:59;;;;;;;12.55;5.20;;;3.70;99.90;;;;;;5014619;28;20025;-76
2022/04/15 01:08:28;;;;;;;8.95;5.15;;;3.70;99.90;;;;;;5014592;28;20030;-77
2022/04/15 01:10:56;;;;;;;9.93;5.13;;;3.80;99.90;;;;;;5013195;28;20030;-76
2022/04/15 01:13:24;;;;;;;10.60;5.68;;;4.00;99.90;;;;;;5019619;23;20298;-80
2022/04/15 01:15:55;;;;;;;8.75;5.28;;;4.10;99.90;;;;;;4995869;28;20030;-80
2022/04/15 01:18:29;;;;;;;11.27;5.28;;;4.20;99.90;;;;;;4994765;28;20033;-80
2022/04/15 01:20:54;;;;;;;11.23;5.45;;;4.20;99.90;;;;;;4995433;28;20062;-80
2022/04/15 01:23:20;;;;;;;11.43;5.78;;;4.30;99.90;;;;;;4996437;28;20023;-80
2022/04/15 01:25:46;;;;;;;12.35;5.40;;;4.40;99.90;;;;;;4995881;28;20389;-79
2022/04/15 01:28:16;;;;;;;11.05;5.57;;;4.40;99.90;;;;;;4994658;28;20138;-80
2022/04/15 01:30:43;;;;;;;7.78;5.43;;;4.20;99.90;;;;;;4994684;28;20439;-80
2022/04/15 01:33:42;;;;;;;9.50;5.47;;;4.20;99.90;;;;;;4996773;28;20022;-80
2022/04/15 01:36:09;;;;;;;7.82;5.20;;;4.10;99.90;;;;;;4995583;28;20034;-79
2022/04/15 01:38:35;;;;;;;12.10;5.72;;;4.30;99.90;;;;;;4996139;28;20378;-80
2022/04/15 01:41:03;;;;;;;8.48;5.63;;;4.50;99.90;;;;;;4995599;28;20018;-80
2022/04/15 01:43:29;;;;;;;8.80;5.88;;;4.60;99.90;;;;;;4995638;28;20061;-80
2022/04/15 01:45:54;;;;;;;9.98;6.10;;;4.70;99.90;;;;;;4995557;28;20062;-80
2022/04/15 01:48:20;;;;;;;9.63;5.88;;;4.70;99.90;;;;;;4995613;28;20069;-79
2022/04/15 01:50:46;;;;;;;12.52;6.90;;;4.90;99.90;;;;;;4995722;28;20073;-79
2022/04/15 01:53:12;;;;;;;13.18;6.78;;;5.00;99.90;;;;;;4995836;28;20027;-80
2022/04/15 01:55:37;;;;;;;11.95;6.20;;;5.00;99.90;;;;;;4995554;28;20041;-80
2022/04/15 01:58:03;;;;;;;9.88;5.78;;;5.00;99.90;;;;;;4994561;28;20070;-77
2022/04/15 02:00:28;;;;;;;9.55;6.10;;;5.10;99.90;;;;;;4995771;28;20037;-80
2022/04/15 02:02:55;;;;;;;11.02;6.57;;;5.30;99.90;;;;;;4994239;28;20046;-80
2022/04/15 02:05:20;;;;;;;11.63;6.13;;;5.30;99.90;;;;;;4994552;28;20026;-80
2022/04/15 02:07:46;;;;;;;11.85;6.25;;;5.50;99.90;;;;;;4995083;28;20033;-80
2022/04/15 02:10:12;;;;;;;13.55;6.57;;;5.50;99.90;;;;;;4996076;28;20474;-80
2022/04/15 02:12:37;;;;;;;11.43;6.60;;;5.60;99.90;;;;;;4991193;28;20051;-80
2022/04/15 02:15:04;;;;;;;9.05;5.88;;;5.70;99.90;;;;;;4975770;28;20121;-80
2022/04/15 02:17:29;;;;;;;10.40;5.30;;;5.80;99.90;;;;;;4976930;28;20031;-80
2022/04/15 02:19:57;;;;;;;12.88;6.15;;;5.80;99.90;;;;;;4975321;28;20019;-80
2022/04/15 02:22:23;;;;;;;8.48;5.00;;;6.00;99.90;;;;;;4976209;28;20034;-80
2022/04/15 02:24:48;;;;;;;7.50;4.65;;;6.00;99.90;;;;;;4975265;28;20761;-80
2022/04/15 02:27:14;;;;;;;7.07;4.03;;;6.10;99.90;;;;;;4979322;28;20018;-79
2022/04/15 02:29:39;;;;;;;9.60;5.75;;;6.20;99.90;;;;;;4981123;28;20394;-79
2022/04/15 02:32:06;;;;;;;10.93;5.38;;;6.30;99.90;;;;;;4978029;28;20549;-80
2022/04/15 02:34:31;;;;;;;9.85;4.50;;;6.40;99.90;;;;;;4985412;28;20030;-80
2022/04/15 02:36:57;;;;;;;7.65;4.32;;;6.50;99.90;;;;;;5001899;28;20037;-80
2022/04/15 02:39:22;;;;;;;6.75;4.50;;;6.60;95.20;;;;;;4980350;28;20069;-80
2022/04/15 02:41:51;;;;;;;9.30;5.00;;;6.60;63.80;;;;;;4981075;28;20035;-80
2022/04/15 02:44:17;;;;;;;9.75;4.50;;;6.70;23.50;;;;;;4979392;28;20035;-80
2022/04/15 02:46:43;;;;;;;8.73;4.13;;;6.80;1.00;;;;;;4980420;28;20344;-80
2022/04/15 02:49:08;;;;;;;8.10;4.57;;;6.80;1.00;;;;;;4980864;28;20031;-80
2022/04/15 02:51:34;;;;;;;6.20;3.83;;;6.80;1.00;;;;;;4979982;28;20545;-80
2022/04/15 02:53:59;;;;;;;6.03;3.85;;;6.90;1.00;;;;;;4971706;28;20027;-80
2022/04/15 02:56:25;;;;;;;7.07;4.38;;;7.00;1.00;;;;;;4959694;29;20039;-80
2022/04/15 02:58:51;;;;;;;8.23;4.13;;;7.10;99.90;;;;;;4976759;28;20031;-80
2022/04/15 03:01:16;;;;;;;6.53;4.00;;;7.20;99.90;;;;;;4978905;28;20483;-80
2022/04/15 03:03:42;;;;;;;7.22;4.03;;;7.20;99.90;;;;;;4979045;28;20019;-80
2022/04/15 03:06:07;;;;;;;5.22;3.30;;;7.30;99.90;;;;;;4979016;28;20027;-80
2022/04/15 03:08:33;;;;;;;6.22;3.88;;;7.40;99.90;;;;;;4981123;28;20026;-80
2022/04/15 03:11:00;;;;;;;5.35;4.18;;;7.40;99.90;;;;;;4981730;28;20030;-79
2022/04/15 03:13:26;;;;;;;3.67;3.20;;;7.40;99.90;;;;;;4979693;28;20051;-79
2022/04/15 03:15:51;;;;;;;4.03;3.30;;;7.50;99.90;;;;;;4980875;28;20122;-80
2022/04/15 03:18:17;;;;;;;6.93;3.40;;;7.60;99.90;;;;;;4973803;28;20063;-80
2022/04/15 03:20:42;;;;;;;8.43;3.67;;;7.70;99.90;;;;;;4960709;29;20087;-80
2022/04/15 03:23:09;;;;;;;5.40;3.70;;;7.70;99.90;;;;;;4960538;28;20059;-80
2022/04/15 03:25:34;;;;;;;6.22;4.50;;;7.70;99.90;;;;;;4960920;29;20384;-79
2022/04/15 03:28:00;;;;;;;7.50;4.07;;;7.70;99.90;;;;;;4960837;29;20031;-79
2022/04/15 03:30:27;;;;;;;5.75;4.10;;;7.80;99.90;;;;;;4980844;28;20505;-79
2022/04/15 03:32:52;;;;;;;5.20;3.97;;;7.80;99.90;;;;;;4995140;28;20026;-79
2022/04/15 03:35:20;;;;;;;5.80;3.75;;;7.80;99.90;;;;;;4995554;28;20037;-80
2022/04/15 03:37:52;;;;;;;6.25;3.95;;;7.80;99.90;;;;;;4964014;28;20019;-79
2022/04/15 03:40:19;;;;;;;5.32;4.43;;;7.90;99.90;;;;;;4977116;28;20031;-79
2022/04/15 03:42:54;;;;;;;8.38;4.55;;;7.90;99.90;;;;;;4977628;28;20454;-79
2022/04/15 03:45:22;;;;;;;5.38;3.80;;;7.90;99.90;;;;;;4977380;28;20113;-79
2022/04/15 03:47:48;;;;;;;8.52;4.25;;;8.00;99.90;;;;;;4978141;28;20085;-79
2022/04/15 03:50:14;;;;;;;6.20;3.75;;;8.00;99.90;;;;;;4979430;28;20026;-80
2022/04/15 03:52:45;;;;;;;9.75;3.88;;;8.00;99.90;;;;;;4977777;28;20050;-79
2022/04/15 03:55:13;;;;;;;5.82;3.67;;;8.00;99.90;;;;;;4979277;28;20023;-79
2022/04/15 03:57:39;;;;;;;6.15;4.28;;;8.00;99.90;;;;;;4977489;28;20035;-79
2022/04/15 04:00:10;;;;;;;7.07;3.90;;;8.00;99.90;;;;;;4978339;28;20023;-79
2022/04/15 04:02:36;;;;;;;7.72;4.53;;;8.00;99.90;;;;;;4979136;28;20081;-79
2022/04/15 04:05:02;;;;;;;7.18;4.18;;;8.00;99.90;;;;;;4977307;28;20121;-81
2022/04/15 04:07:27;;;;;;;6.07;4.50;;;8.10;99.90;;;;;;4976345;28;20039;-81
2022/04/15 04:09:53;;;;;;;8.27;4.93;;;8.10;99.90;;;;;;4977279;28;20590;-81
2022/04/15 04:12:19;;;;;;;8.68;4.43;;;8.10;99.90;;;;;;4976894;28;20419;-81
2022/04/15 04:14:44;;;;;;;7.53;4.20;;;8.10;99.90;;;;;;4976885;28;20054;-81
2022/04/15 04:17:10;;;;;;;5.70;4.05;;;8.10;99.90;;;;;;4976308;28;20023;-81
2022/04/15 04:19:36;;;;;;;6.20;4.20;;;8.10;99.90;;;;;;4976091;28;20030;-81
2022/04/15 04:22:02;;;;;;;5.75;3.97;;;8.10;99.90;;;;;;4975515;28;20109;-81
2022/04/15 04:24:28;;;;;;;5.43;3.50;;;8.20;99.90;;;;;;4976803;28;20073;-81
2022/04/15 04:26:54;;;;;;;7.00;3.95;;;8.10;99.50;;;;;;4975995;28;20019;-81
2022/04/15 04:29:19;;;;;;;10.25;4.15;;;8.20;99.90;;;;;;4975709;28;20027;-81
2022/04/15 04:31:45;;;;;;;6.75;3.58;;;8.10;99.90;;;;;;4975562;28;20058;-81
2022/04/15 04:34:10;;;;;;;6.57;3.28;;;8.20;89.90;;;;;;4976933;28;20156;-79
2022/04/15 04:36:36;;;;;;;5.97;3.20;;;8.20;81.30;;;;;;4976785;28;20102;-80
2022/04/15 04:39:02;;;;;;;7.95;3.45;;;8.20;83.70;;;;;;4984143;28;20106;-80
2022/04/15 04:41:28;;;;;;;7.15;3.72;;;8.20;78.80;;;;;;4985715;28;20129;-80
2022/04/15 04:43:53;;;;;;;5.25;3.40;;;8.20;90.00;;;;;;4975962;28;20027;-80
2022/04/15 04:46:19;;;;;;;7.40;3.75;;;8.20;90.80;;;;;;4976799;28;20667;-80
2022/04/15 04:48:44;;;;;;;5.57;3.35;;;8.20;90.10;;;;;;4977173;28;20033;-81
2022/04/15 04:51:10;;;;;;;7.43;3.78;;;8.20;85.50;;;;;;4976747;28;20047;-79
2022/04/15 04:53:36;;;;;;;8.75;3.88;;;8.20;85.90;;;;;;4980849;28;20069;-80
2022/04/15 04:56:01;;;;;;;6.65;3.80;;;8.20;92.10;;;;;;4996712;28;20026;-77
2022/04/15 04:58:27;;;;;;;7.68;3.85;;;8.20;95.60;;;;;;4979030;28;20031;-79
2022/04/15 05:00:52;;;;;;;4.40;2.95;;;8.20;99.90;;;;;;4973841;28;20023;-81
2022/04/15 05:03:18;;;;;;;7.68;3.92;;;8.20;97.80;;;;;;4967975;28;20106;-81
2022/04/15 05:05:43;;;;;;;5.55;3.47;;;8.20;97.40;;;;;;4964267;28;20089;-81
2022/04/15 05:08:09;;;;;;;6.80;3.55;;;8.20;99.90;;;;;;4960091;28;20027;-80
2022/04/15 05:10:34;;;;;;;4.68;3.70;;;8.20;99.90;;;;;;4956517;28;20076;-81
2022/04/15 05:13:00;;;;;;;6.38;2.90;;;8.20;95.70;;;;;;4978382;28;20137;-77
2022/04/15 05:15:26;;;;;;;5.35;3.35;;;8.20;90.00;;;;;;4972777;28;20031;-77
2022/04/15 05:17:51;;;;;;;7.30;4.13;;;8.30;90.50;;;;;;4972628;28;20078;-80
2022/04/15 05:20:17;;;;;;;5.45;3.75;;;8.30;72.00;;;;;;4972828;28;20027;-79
2022/04/15 05:22:44;;;;;;;9.50;4.28;;;8.30;66.80;;;;;;4972722;28;20019;-80
2022/04/15 05:25:10;;;;;;;7.97;4.47;;;8.20;77.10;;;;;;4972851;28;20023;-80
2022/04/15 05:27:36;;;;;;;7.40;4.70;;;8.30;79.90;;;;;;4958571;28;20046;-80
2022/04/15 05:30:03;;;;;;;7.82;4.80;;;8.30;88.50;;;;;;4974984;28;20065;-78
2022/04/15 05:32:29;;;;;;;11.85;5.90;;;8.30;90.80;;;;;;4978034;28;20031;-80
2022/04/15 05:34:54;;;;;;;11.02;6.82;;;8.30;94.20;;;;;;4965402;28;20152;-80
2022/04/15 05:37:20;;;;;;;10.50;5.03;;;8.30;79.40;;;;;;4979405;28;20391;-79
2022/04/15 05:39:45;;;;;;;8.45;5.32;;;8.30;97.80;;;;;;4970912;28;20027;-81
2022/04/15 05:42:11;;;;;;;10.20;5.22;;;8.30;27.90;;;;;;4973937;28;20106;-80
2022/04/15 05:44:36;;;;;;;5.68;3.70;;;8.30;58.40;;;;;;4974998;28;20042;-80
2022/04/15 05:47:02;;;;;;;11.93;6.22;;;8.30;99.60;;;;;;4975223;28;20027;-80
2022/04/15 05:49:28;;;;;;;5.70;3.65;;;8.30;99.90;;;;;;4975112;28;20023;-80
2022/04/15 05:51:54;;;;;;;6.95;3.42;;;8.20;99.90;;;;;;4974915;28;20427;-80
2022/04/15 05:54:19;;;;;;;5.78;4.35;;;8.20;99.90;;;;;;4959889;28;20055;-81
2022/04/15 05:56:45;;;;;;;8.25;3.90;;;8.20;99.90;;;;;;4962404;28;20461;-80
2022/04/15 05:59:10;;;;;;;7.75;4.03;;;8.10;99.90;;;;;;4972304;28;20487;-81
2022/04/15 06:01:36;;;;;;;4.97;3.05;;;8.10;99.90;;;;;;4972223;28;20541;-81
2022/04/15 06:04:01;;;;;;;4.10;3.50;;;8.10;99.90;;;;;;4972892;28;20470;-80
2022/04/15 06:06:27;;;;;;;8.05;4.35;;;8.10;99.90;;;;;;4980801;28;20105;-80
2022/04/15 06:08:53;;;;;;;6.93;4.03;;;8.10;99.90;;;;;;4971290;28;20107;-80
2022/04/15 06:11:19;;;;;;;4.95;3.30;;;8.10;99.90;;;;;;4970981;28;20019;-80
2022/04/15 06:13:47;;;;;;;5.72;3.70;;;8.10;99.50;;;;;;4969690;28;20379;-79
2022/04/15 06:16:17;;;;;;;4.72;4.22;;;8.20;89.70;;;;;;4982470;28;20035;-79
2022/04/15 06:18:43;;;;;;;5.75;4.43;;;8.20;91.10;;;;;;4970795;28;20042;-79
2022/04/15 06:21:08;;;;;;;4.45;3.65;;;8.20;92.60;;;;;;4971023;28;20031;-79
2022/04/15 06:23:34;;;;;;;5.97;4.80;;;8.20;67.50;;;;;;4967369;28;20494;-79
2022/04/15 06:26:00;;;;;;;4.78;3.60;;;8.30;75.30;;;;;;4969035;28;20058;-80
2022/04/15 06:28:25;;;;;;;4.13;3.72;;;8.40;20.30;;;;;;4972197;28;20030;-80
2022/04/15 06:30:51;;;;;;;5.45;3.72;;;8.40;24.00;;;;;;4965149;28;20035;-79
2022/04/15 06:33:20;;;;;;;1.45;1.35;;;8.50;1.00;;;;;;4963340;28;20031;-80
2022/04/15 06:35:46;;;;;;;4.45;3.60;;;8.50;1.00;;;;;;4981728;28;20041;-78
2022/04/15 06:38:12;;;;;;;5.10;2.95;;;8.60;1.00;;;;;;4986740;28;20033;-79
2022/04/15 06:40:40;;;;;;;3.47;2.80;;;8.60;1.00;;;;;;4964252;28;20023;-79
2022/04/15 06:43:06;;;;;;;3.30;2.53;;;8.60;1.00;;;;;;4965713;28;20105;-79
2022/04/15 06:45:32;;;;;;;4.22;2.75;;;8.70;1.00;;;;;;4973095;28;20389;-79
2022/04/15 06:47:57;;;;;;;4.25;3.45;;;8.70;1.00;;;;;;4957174;28;20598;-79
2022/04/15 06:50:24;;;;;;;4.30;3.20;;;8.80;1.00;;;;;;4955676;28;20015;-79
2022/04/15 06:52:49;;;;;;;5.20;3.45;;;8.80;1.00;;;;;;4973112;28;20390;-80
2022/04/15 06:55:15;;;;;;;3.67;2.88;;;8.90;1.00;;;;;;4971994;28;20483;-79
2022/04/15 06:57:41;;;;;;;3.50;3.05;;;8.90;1.00;;;;;;4972222;28;20030;-79
2022/04/15 07:00:08;;;;;;;4.53;2.95;;;8.90;1.00;;;;;;4972190;28;20113;-81
2022/04/15 07:02:35;;;;;;;3.20;2.25;;;9.10;1.00;;;;;;4970385;28;20446;-85
2022/04/15 07:05:02;;;;;;;2.58;1.60;;;9.10;1.00;;;;;;4970415;28;20479;-81
2022/04/15 07:07:28;;;;;;;2.70;2.47;;;9.00;1.00;;;;;;4970747;28;20594;-79
2022/04/15 07:09:53;;;;;;;3.50;1.98;;;9.00;1.00;;;;;;4977037;28;20118;-80
2022/04/15 07:12:19;;;;;;;4.00;2.15;;;9.00;1.00;;;;;;4971093;28;20511;-81
2022/04/15 07:14:44;;;;;;;2.35;2.10;;;8.70;1.00;;;;;;4969794;28;20495;-80
2022/04/15 07:17:10;;;;;;;6.35;3.70;;;8.60;1.00;;;;;;4971264;28;20027;-81
2022/04/15 07:19:36;;;;;;;7.30;3.30;;;8.80;1.00;;;;;;4974132;28;20360;-80
2022/04/15 07:22:05;;;;;;;4.40;3.17;;;8.80;1.00;;;;;;4974940;28;20069;-81
2022/04/15 07:24:31;;;;;;;5.18;3.63;;;8.60;1.00;;;;;;4971884;28;20384;-80
2022/04/15 07:26:56;;;;;;;4.32;3.40;;;8.70;1.00;;;;;;4976518;28;20023;-82
2022/04/15 07:29:25;;;;;;;1.90;1.67;;;8.70;1.00;;;;;;4959923;28;20519;-81
2022/04/15 07:31:50;;;;;;;3.95;2.72;;;8.60;1.00;;;;;;4975662;28;20015;-81
2022/04/15 07:34:16;;;;;;;4.40;2.88;;;8.60;1.00;;;;;;4974628;28;20510;-80
2022/04/15 07:39:08;;;;;;;11.93;7.82;;;8.70;1.00;;;;;;4970465;28;20533;-79
2022/04/15 07:41:36;;;;;;;11.00;7.38;;;8.60;1.00;;;;;;4966884;28;20058;-78
2022/04/15 07:44:03;;;;;;;11.73;7.70;;;8.80;1.00;;;;;;4970727;28;20166;-79
2022/04/15 07:46:29;;;;;;;11.82;7.15;;;9.00;1.00;;;;;;4965893;28;20508;-78
2022/04/15 07:48:55;;;;;;;11.38;7.10;;;9.00;1.00;;;;;;4967457;28;20050;-79
2022/04/15 07:51:20;;;;;;;10.95;6.28;;;9.10;1.00;;;;;;4970268;28;20030;-79
2022/04/15 07:53:46;;;;;;;10.45;6.95;;;9.20;1.00;;;;;;4972474;28;20110;-78
2022/04/15 07:56:11;;;;;;;5.88;4.38;;;9.20;1.00;;;;;;4964919;28;20035;-78
2022/04/15 07:58:37;;;;;;;10.50;6.88;;;9.10;1.00;;;;;;4978715;28;20106;-79
2022/04/15 08:01:02;;;;;;;15.23;7.72;;;9.00;1.00;;;;;;4974381;28;20031;-79
2022/04/15 08:03:28;;;;;;;12.55;7.65;;;8.90;1.00;;;;;;4970505;28;20114;-79
2022/04/15 08:05:54;;;;;;;8.98;5.32;;;8.80;1.00;;;;;;4973599;28;20034;-79
2022/04/15 08:08:20;;;;;;;15.07;8.10;;;8.80;1.00;;;;;;4971207;28;20034;-79
2022/04/15 08:10:47;;;;;;;11.35;7.28;;;8.90;1.00;;;;;;4976013;28;20019;-79
2022/04/15 08:13:12;;;;;;;10.40;6.80;;;9.10;1.00;;;;;;4978943;28;20079;-78
2022/04/15 08:15:38;;;;;;;9.82;6.15;;;9.20;1.00;;;;;;4970266;28;20070;-79
2022/04/15 08:18:04;;;;;;;14.50;8.88;;;9.40;1.00;;;;;;4972644;28;20065;-79
2022/04/15 08:20:29;;;;;;;11.48;8.15;;;10.00;99.90;;;;;;4971274;28;20089;-79
2022/04/15 08:22:55;;;;;;;11.98;8.07;;;11.70;99.90;;;;;;4970003;28;20038;-79
2022/04/15 08:25:20;;;;;;;13.02;7.50;;;13.60;99.90;;;;;;4972688;28;20039;-80
2022/04/15 08:27:46;;;;;;;14.10;9.00;;;15.40;99.90;;;;;;4971323;28;20026;-77
2022/04/15 08:30:12;;;;;;;13.63;8.70;;;12.90;99.90;;;;;;4973202;28;20026;-79
2022/04/15 08:32:37;;;;;;;12.10;7.82;;;15.10;99.90;;;;;;4968639;28;20418;-79
2022/04/15 08:35:04;;;;;;;14.20;7.78;;;16.00;99.90;;;;;;4963806;28;20047;-79
2022/04/15 08:37:30;;;;;;;10.32;5.97;;;14.50;99.90;;;;;;4971565;28;20023;-80
2022/04/15 08:39:56;;;;;;;10.45;6.45;;;13.80;99.90;;;;;;4968060;28;20441;-80
2022/04/15 08:42:22;;;;;;;11.77;6.28;;;13.10;99.90;;;;;;4967413;28;20031;-80
2022/04/15 08:44:51;;;;;;;13.27;6.88;;;12.40;99.90;;;;;;4966709;28;20105;-79
2022/04/15 08:47:17;;;;;;;10.30;6.78;;;12.90;99.90;;;;;;4973398;28;20027;-80
2022/04/15 08:49:42;;;;;;;12.98;6.90;;;16.30;99.90;;;;;;4972307;28;20454;-79
2022/04/15 08:52:12;;;;;;;11.45;6.43;;;15.50;99.90;;;;;;4973328;28;20513;-79
2022/04/15 08:54:38;;;;;;;9.70;6.63;;;14.70;99.90;;;;;;4972648;28;20050;-80
2022/04/15 08:57:04;;;;;;;11.52;5.85;;;13.80;99.90;;;;;;4973363;28;20410;-79
2022/04/15 08:59:29;;;;;;;10.05;5.75;;;13.10;99.90;;;;;;4973384;28;20130;-79
2022/04/15 09:01:55;;;;;;;11.40;6.53;;;12.50;99.90;;;;;;4973421;28;20102;-81
2022/04/15 09:04:21;;;;;;;10.20;6.88;;;12.40;99.90;;;;;;4973014;28;20042;-81
2022/04/15 09:06:58;;;;;;;11.85;7.82;;;12.00;99.90;;;;;;4972810;28;20084;-80
2022/04/15 09:09:31;;;;;;;9.80;6.28;;;12.20;99.90;;;;;;4973043;28;20505;-79
2022/04/15 09:11:58;;;;;;;10.07;7.13;;;12.20;99.90;;;;;;4972167;28;20058;-79
2022/04/15 09:14:25;;;;;;;9.15;7.03;;;12.70;99.90;;;;;;4971223;28;20050;-80
2022/04/15 09:16:51;;;;;;;10.80;5.85;;;12.60;99.90;;;;;;4972497;28;20383;-80
2022/04/15 09:19:18;;;;;;;10.20;6.10;;;12.30;99.90;;;;;;4972787;28;20511;-79
2022/04/15 09:21:55;;;;;;;12.35;6.60;;;12.30;99.90;;;;;;4971153;28;20046;-79
2022/04/15 09:24:31;;;;;;;9.13;5.70;;;12.00;99.90;;;;;;4972573;28;20050;-80
2022/04/15 09:27:01;;;;;;;10.98;5.40;;;11.90;99.90;;;;;;4980488;28;20113;-80
2022/04/15 09:29:35;;;;;;;10.02;6.07;;;11.90;99.90;;;;;;4978452;28;20030;-80
2022/04/15 09:32:15;;;;;;;9.43;6.10;;;12.00;99.90;;;;;;4973300;28;20035;-81
2022/04/15 09:35:01;;;;;;;8.85;5.18;;;11.90;99.90;;;;;;4972486;28;20023;-79
2022/04/15 09:37:39;;;;;;;7.60;4.78;;;11.80;99.90;;;;;;4972572;28;20035;-80
2022/04/15 09:40:15;;;;;;;7.20;4.35;;;11.80;99.90;;;;;;4971685;28;20027;-79
2022/04/15 09:42:54;;;;;;;8.75;4.53;;;12.30;99.90;;;;;;4971970;28;20368;-79
2022/04/15 09:45:21;;;;;;;11.00;5.28;;;12.40;99.90;;;;;;4972417;28;20073;-79
2022/04/15 09:47:52;;;;;;;7.18;4.45;;;12.90;99.90;;;;;;4976798;28;20026;-80
2022/04/15 09:50:22;;;;;;;6.75;4.93;;;14.20;99.90;;;;;;4959759;28;20034;-80
2022/04/15 09:52:51;;;;;;;5.43;4.28;;;15.70;99.90;;;;;;4968008;28;20023;-80
2022/04/15 09:55:21;;;;;;;6.60;4.70;;;15.10;99.90;;;;;;4965431;28;20117;-80
2022/04/15 09:57:50;;;;;;;7.25;4.63;;;14.30;99.90;;;;;;4971006;28;20058;-80
2022/04/15 10:00:19;;;;;;;5.07;3.17;;;14.60;99.90;;;;;;4971917;28;20038;-80
2022/04/15 10:02:49;;;;;;;7.75;4.60;;;13.90;99.90;;;;;;4972223;28;20422;-81
2022/04/15 10:05:16;;;;;;;9.00;4.47;;;13.40;99.90;;;;;;4972525;28;20066;-80
2022/04/15 10:07:42;;;;;;;8.13;4.25;;;13.30;99.90;;;;;;4965623;28;20451;-81
2022/04/15 10:10:09;;;;;;;5.15;4.03;;;13.90;99.90;;;;;;4958367;28;20421;-80
2022/04/15 10:12:41;;;;;;;7.35;2.47;;;13.70;99.90;;;;;;4954275;28;20439;-80
2022/04/15 10:15:09;;;;;;;6.78;4.03;;;12.80;99.90;;;;;;4954870;28;20055;-80
2022/04/15 10:17:37;;;;;;;6.15;3.45;;;13.10;99.90;;;;;;4953305;28;20019;-80
2022/04/15 10:20:03;;;;;;;7.47;4.00;;;13.10;99.90;;;;;;4956527;28;20070;-82
2022/04/15 10:22:30;;;;;;;8.77;3.85;;;13.10;99.90;;;;;;4968286;28;20058;-81
2022/04/15 10:24:56;;;;;;;6.03;3.88;;;13.00;99.90;;;;;;4969811;28;20039;-81
2022/04/15 10:27:26;;;;;;;5.78;3.38;;;13.00;99.90;;;;;;4963911;28;20094;-81
2022/04/15 10:30:20;;;;;;;6.90;4.30;;;12.60;99.90;;;;;;4957687;28;20058;-80
2022/04/15 10:32:55;;;;;;;4.70;3.38;;;12.40;99.90;;;;;;4954412;28;20045;-81
2022/04/15 10:35:29;;;;;;;8.48;4.10;;;12.30;99.90;;;;;;4962111;28;20039;-81
2022/04/15 10:38:02;;;;;;;6.93;3.80;;;12.30;99.90;;;;;;4965298;28;20023;-79
2022/04/15 10:40:30;;;;;;;5.28;3.65;;;12.30;99.90;;;;;;4957826;28;20027;-80
2022/04/15 10:43:17;;;;;;;7.13;4.35;;;12.60;99.90;;;;;;4959676;28;20023;-80
2022/04/15 10:45:43;;;;;;;7.35;4.43;;;12.60;99.90;;;;;;4961392;28;20034;-79
2022/04/15 10:48:08;;;;;;;6.95;3.83;;;12.50;99.90;;;;;;4958935;28;20066;-79
2022/04/15 10:50:35;;;;;;;5.90;3.60;;;12.70;99.90;;;;;;4954837;28;20089;-79
2022/04/15 10:53:31;;;;;;;4.78;3.83;;;12.90;99.90;;;;;;4954101;28;20379;-79
2022/04/15 10:56:08;;;;;;;4.40;3.10;;;12.90;99.90;;;;;;4961584;28;20491;-80
2022/04/15 11:01:32;;;;;;;6.13;3.15;;;13.00;99.90;;;;;;4975341;28;20400;-79
2022/04/15 11:04:05;;;;;;;5.63;2.47;;;13.10;99.90;;;;;;4974941;28;20031;-79
2022/04/15 11:06:31;;;;;;;2.35;1.85;;;13.10;99.90;;;;;;4974250;28;20050;-80
2022/04/15 11:08:58;;;;;;;5.20;3.05;;;13.20;99.90;;;;;;4975708;28;20486;-79
2022/04/15 11:11:35;;;;;;;3.75;2.63;;;13.40;99.90;;;;;;4976237;28;20025;-80
2022/04/15 11:14:05;;;;;;;5.20;3.15;;;13.10;99.90;;;;;;4976528;28;20051;-80
2022/04/15 11:16:44;;;;;;;4.38;3.17;;;13.50;99.90;;;;;;4972567;28;20039;-80
2022/04/15 11:19:13;;;;;;;3.72;3.30;;;13.70;99.90;;;;;;4972726;28;20121;-79
2022/04/15 11:21:54;;;;;;;5.45;3.70;;;14.20;99.90;;;;;;4958419;29;20079;-80
2022/04/15 11:24:27;;;;;;;3.28;2.80;;;14.40;99.90;;;;;;4969257;28;20035;-80
2022/04/15 11:26:58;;;;;;;4.05;3.35;;;14.50;99.90;;;;;;4976952;28;20023;-79
2022/04/15 11:29:29;;;;;;;7.70;3.20;;;14.70;99.90;;;;;;4977405;28;20030;-79
2022/04/15 11:31:58;;;;;;;4.95;3.40;;;15.10;99.90;;;;;;4988555;28;20030;-85
2022/04/15 11:34:24;;;;;;;3.78;2.30;;;14.70;99.90;;;;;;4990143;28;20454;-79
2022/04/15 11:36:56;;;;;;;5.28;3.13;;;14.70;99.90;;;;;;4980414;28;20031;-79
2022/04/15 11:39:24;;;;;;;5.88;2.92;;;14.50;99.90;;;;;;4979077;28;20035;-79
2022/04/15 11:41:52;;;;;;;5.45;3.30;;;14.20;99.90;;;;;;4978228;28;20050;-79
2022/04/15 11:44:19;;;;;;;6.57;3.67;;;14.30;99.90;;;;;;4980387;28;20027;-78
2022/04/15 11:46:47;;;;;;;4.85;3.42;;;14.60;99.90;;;;;;4971440;28;20035;-78
2022/04/15 11:49:20;;;;;;;4.43;3.28;;;14.20;99.90;;;;;;4977292;28;20026;-79
2022/04/15 11:51:54;;;;;;;6.18;3.70;;;14.50;99.90;;;;;;4977526;28;20102;-78
2022/04/15 11:54:38;;;;;;;4.78;3.28;;;14.80;99.90;;;;;;4975471;28;20125;-79
2022/04/15 11:57:05;;;;;;;4.18;2.88;;;14.80;99.90;;;;;;4967603;28;20049;-79
2022/04/15 11:59:41;;;;;;;5.72;3.63;;;14.20;99.90;;;;;;4974201;28;20026;-79
2022/04/15 12:02:06;;;;;;;5.63;4.13;;;14.90;99.90;;;;;;4967036;28;20078;-79
2022/04/15 12:04:32;;;;;;;5.47;4.00;;;14.40;99.90;;;;;;4973125;28;20058;-79
2022/04/15 12:06:58;;;;;;;5.88;3.88;;;14.00;99.90;;;;;;4974554;28;20043;-79
2022/04/15 12:09:24;;;;;;;6.50;4.07;;;14.50;99.90;;;;;;4974367;28;20046;-79
2022/04/15 12:11:51;;;;;;;6.05;3.67;;;15.30;99.90;;;;;;4974342;28;20033;-79
2022/04/15 12:14:17;;;;;;;5.07;3.72;;;15.70;99.90;;;;;;4973593;28;20513;-79
2022/04/15 12:16:45;;;;;;;5.30;3.60;;;15.40;99.90;;;;;;4974167;28;20019;-79
2022/04/15 12:19:12;;;;;;;5.00;2.72;;;14.90;99.90;;;;;;4972850;28;20045;-79
2022/04/15 12:21:38;;;;;;;4.70;3.75;;;14.20;99.90;;;;;;4974188;28;20467;-79
2022/04/15 12:24:08;;;;;;;6.53;3.00;;;14.40;99.90;;;;;;4973861;28;20058;-79
2022/04/15 12:26:44;;;;;;;7.70;4.45;;;14.30;99.90;;;;;;4974181;28;20097;-79
2022/04/15 12:32:23;;;;;;;7.72;4.47;;;14.10;99.90;;;;;;4974368;28;20126;-79
2022/04/15 12:34:56;;;;;;;6.90;4.18;;;14.20;99.90;;;;;;4972456;28;20495;-78
2022/04/15 12:37:36;;;;;;;7.43;5.07;;;14.40;99.90;;;;;;4974001;28;20027;-78
2022/04/15 12:40:08;;;;;;;6.30;3.72;;;14.50;99.90;;;;;;4973866;28;20082;-78
2022/04/15 12:42:36;;;;;;;6.75;3.85;;;14.40;99.90;;;;;;4972844;28;20022;-79
2022/04/15 12:45:09;;;;;;;7.35;3.42;;;14.40;99.90;;;;;;4973542;28;20031;-78
2022/04/15 12:47:37;;;;;;;4.47;3.10;;;14.00;99.90;;;;;;4976388;28;20030;-78
2022/04/15 12:50:20;;;;;;;6.38;3.50;;;14.40;99.90;;;;;;4973098;28;20547;-78
2022/04/15 12:52:48;;;;;;;4.85;2.83;;;14.30;99.90;;;;;;4973491;28;20423;-78
2022/04/15 12:55:23;;;;;;;5.22;3.67;;;14.10;99.90;;;;;;4971910;28;20126;-79
2022/04/15 12:57:48;;;;;;;7.60;3.90;;;14.10;99.90;;;;;;4973617;28;20030;-79
2022/04/15 13:00:14;;;;;;;6.30;3.58;;;14.10;99.90;;;;;;4972903;28;20035;-79
2022/04/15 13:02:40;;;;;;;6.75;3.90;;;14.00;99.90;;;;;;4973117;28;20426;-80
2022/04/15 13:05:07;;;;;;;7.85;4.57;;;13.90;99.90;;;;;;4972977;28;20110;-79